createdAt,value
2023-03-06T00:00:47.810Z,32.20
2023-03-06T00:01:47.819Z,32.21
2023-03-06T00:02:47.836Z,32.23
2023-03-06T00:05:47.877Z,32.27
2023-03-06T00:06:47.854Z,32.28
2023-03-06T00:07:47.853Z,32.21
2023-03-06T00:08:47.859Z,32.26
2023-03-06T00:09:47.857Z,32.22
2023-03-06T00:10:47.881Z,32.21
2023-03-06T00:11:47.866Z,32.23
2023-03-06T00:12:47.871Z,32.24
2023-03-06T00:13:47.867Z,32.22
2023-03-06T00:14:47.876Z,32.23
2023-03-06T00:15:47.937Z,32.22
2023-03-06T00:16:47.892Z,32.19
2023-03-06T00:17:47.883Z,32.21
2023-03-06T00:18:47.898Z,32.25
2023-03-06T00:19:47.914Z,32.18
2023-03-06T00:20:47.905Z,32.16
2023-03-06T00:21:47.902Z,32.19
2023-03-06T00:22:47.923Z,32.17
2023-03-06T00:23:47.924Z,32.21
2023-03-06T00:24:47.924Z,32.18
2023-03-06T00:25:47.929Z,32.21
2023-03-06T00:26:47.931Z,32.21
2023-03-06T00:27:47.940Z,32.21
2023-03-06T00:28:47.949Z,32.25
2023-03-06T00:29:47.958Z,32.21
2023-03-06T00:30:47.974Z,32.26
2023-03-06T00:31:48.050Z,32.23
2023-03-06T00:32:47.992Z,32.21
2023-03-06T00:33:47.989Z,32.21
2023-03-06T00:34:48.003Z,32.19
2023-03-06T00:35:48.036Z,32.23
2023-03-06T00:36:48.021Z,32.21
2023-03-06T00:37:48.022Z,32.19
2023-03-06T00:38:48.031Z,32.24
2023-03-06T00:39:48.042Z,32.23
2023-03-06T00:40:48.053Z,32.19
2023-03-06T00:41:48.071Z,32.22
2023-03-06T00:42:48.094Z,32.21
2023-03-06T00:43:48.256Z,32.22
2023-03-06T00:44:48.202Z,32.19
2023-03-06T00:45:48.172Z,32.18
2023-03-06T00:46:48.134Z,32.22
2023-03-06T00:47:48.158Z,32.19
2023-03-06T00:48:48.163Z,32.21
2023-03-06T00:49:48.172Z,32.20
2023-03-06T00:50:48.186Z,32.20
2023-03-06T00:51:48.194Z,32.18
2023-03-06T00:52:48.223Z,32.16
2023-03-06T00:53:48.224Z,32.16
2023-03-06T00:54:48.229Z,32.19
2023-03-06T00:55:48.239Z,32.20
2023-03-06T00:56:48.250Z,32.17
2023-03-06T00:57:48.275Z,32.22
2023-03-06T00:58:48.284Z,32.21
2023-03-06T00:59:48.296Z,32.17
2023-03-06T01:00:48.345Z,32.17
2023-03-06T01:01:48.388Z,32.19
2023-03-06T01:02:48.339Z,32.19
2023-03-06T01:03:48.342Z,32.18
2023-03-06T01:04:48.353Z,32.19
2023-03-06T01:05:48.761Z,32.21
2023-03-06T01:06:48.431Z,32.22
2023-03-06T01:07:48.386Z,32.25
2023-03-06T01:08:48.403Z,32.17
2023-03-06T01:09:48.406Z,32.20
2023-03-06T01:10:48.415Z,32.18
2023-03-06T01:11:48.442Z,32.19
2023-03-06T01:12:48.440Z,32.22
2023-03-06T01:13:48.459Z,32.23
2023-03-06T01:14:48.479Z,32.23
2023-03-06T01:15:48.484Z,32.24
2023-03-06T01:16:48.498Z,32.20
2023-03-06T01:17:48.505Z,32.18
2023-03-06T01:18:48.516Z,32.19
2023-03-06T01:19:48.534Z,32.16
2023-03-06T01:20:48.539Z,32.17
2023-03-06T01:21:48.549Z,32.20
2023-03-06T01:22:48.549Z,32.19
2023-03-06T01:23:48.563Z,32.30
2023-03-06T01:24:48.570Z,32.31
2023-03-06T01:25:48.589Z,32.32
2023-03-06T01:26:48.578Z,32.33
2023-03-06T01:27:48.596Z,32.31
2023-03-06T01:28:48.682Z,32.30
2023-03-06T01:29:48.609Z,32.31
2023-03-06T01:30:48.609Z,32.33
2023-03-06T01:31:48.696Z,32.31
2023-03-06T01:32:48.635Z,32.28
2023-03-06T01:33:48.636Z,32.29
2023-03-06T01:34:48.633Z,32.26
2023-03-06T01:35:48.702Z,32.28
2023-03-06T01:36:48.646Z,32.23
2023-03-06T01:37:48.678Z,32.28
2023-03-06T01:38:48.652Z,32.25
2023-03-06T01:43:48.679Z,32.15
2023-03-06T01:44:48.673Z,32.15
2023-03-06T01:45:48.678Z,32.14
2023-03-06T01:46:48.734Z,32.17
2023-03-06T01:47:48.664Z,32.18
2023-03-06T01:48:48.690Z,32.18
2023-03-06T01:49:48.668Z,32.17
2023-03-06T01:50:48.732Z,32.17
2023-03-06T01:51:48.694Z,32.17
2023-03-06T01:52:48.668Z,32.18
2023-03-06T01:53:49.274Z,32.17
2023-03-06T01:54:49.291Z,32.18
2023-03-06T01:55:48.658Z,32.15
2023-03-06T01:56:48.657Z,32.14
2023-03-06T01:57:48.657Z,32.14
2023-03-06T01:58:48.649Z,32.13
2023-03-06T01:59:48.667Z,32.15
2023-03-06T02:00:48.739Z,32.12
2023-03-06T02:01:48.654Z,32.15
2023-03-06T02:02:48.678Z,32.12
2023-03-06T02:03:48.714Z,32.12
2023-03-06T02:04:48.669Z,32.14
2023-03-06T02:05:48.670Z,32.13
2023-03-06T02:06:48.790Z,32.13
2023-03-06T02:07:48.633Z,32.10
2023-03-06T02:08:48.636Z,32.10
2023-03-06T02:09:48.645Z,32.08
2023-03-06T02:17:48.602Z,32.10
2023-03-06T02:18:48.589Z,32.12
2023-03-06T02:19:48.595Z,32.12
2023-03-06T02:20:48.605Z,32.13
2023-03-06T02:22:48.612Z,32.11
2023-03-06T02:23:48.565Z,32.13
2023-03-06T02:24:48.576Z,32.11
2023-03-06T02:25:48.576Z,32.12
2023-03-06T02:26:48.575Z,32.10
2023-03-06T02:27:48.582Z,32.12
2023-03-06T02:28:48.558Z,32.11
2023-03-06T02:29:48.557Z,32.10
2023-03-06T02:30:48.647Z,32.10
2023-03-06T02:32:48.548Z,32.10
2023-03-06T02:33:48.543Z,32.10
2023-03-06T02:34:48.546Z,32.06
2023-03-06T02:35:48.572Z,32.09
2023-03-06T02:36:48.549Z,32.08
2023-03-06T02:48:48.494Z,32.05
2023-03-06T02:49:48.495Z,32.06
2023-03-06T02:50:48.499Z,32.08
2023-03-06T02:51:48.500Z,32.08
2023-03-06T02:52:48.497Z,32.05
2023-03-06T02:53:48.502Z,32.07
2023-03-06T02:54:48.496Z,32.06
2023-03-06T02:55:48.508Z,32.07
2023-03-06T02:56:48.497Z,32.07
2023-03-06T02:57:48.505Z,32.07
2023-03-06T02:58:48.527Z,32.06
2023-03-06T02:59:48.524Z,32.03
2023-03-06T03:00:48.511Z,31.99
2023-03-06T03:01:48.631Z,32.01
2023-03-06T03:02:48.516Z,32.00
2023-03-06T03:03:48.528Z,31.99
2023-03-06T03:04:48.592Z,32.02
2023-03-06T03:05:48.525Z,32.01
2023-03-06T03:06:48.523Z,32.02
2023-03-06T03:07:48.552Z,32.02
2023-03-06T03:08:48.531Z,32.01
2023-03-06T03:09:48.534Z,32.01
2023-03-06T03:10:48.525Z,31.96
2023-03-06T03:11:48.531Z,31.97
2023-03-06T03:12:48.532Z,31.98
2023-03-06T03:13:48.545Z,31.96
2023-03-06T03:14:48.533Z,31.98
2023-03-06T03:15:48.563Z,31.94
2023-03-06T03:16:48.536Z,31.95
2023-03-06T03:17:48.542Z,31.93
2023-03-06T03:18:48.542Z,31.97
2023-03-06T03:19:48.556Z,31.98
2023-03-06T03:20:48.553Z,31.96
2023-03-06T03:21:48.558Z,31.97
2023-03-06T03:22:48.581Z,31.96
2023-03-06T03:23:48.568Z,31.99
2023-03-06T03:24:48.584Z,31.99
2023-03-06T03:25:49.320Z,32.00
2023-03-06T03:26:48.580Z,31.98
2023-03-06T03:27:48.575Z,31.92
2023-03-06T03:28:48.591Z,31.98
2023-03-06T03:29:48.574Z,31.91
2023-03-06T03:30:48.614Z,31.92
2023-03-06T03:31:48.574Z,31.93
2023-03-06T03:32:48.578Z,31.96
2023-03-06T03:33:48.566Z,32.00
2023-03-06T03:34:48.565Z,31.99
2023-03-06T03:35:48.622Z,31.96
2023-03-06T03:36:48.580Z,31.94
2023-03-06T03:37:48.577Z,31.94
2023-03-06T03:38:48.597Z,31.96
2023-03-06T03:39:48.585Z,31.98
2023-03-06T03:40:48.608Z,31.98
2023-03-06T03:41:48.606Z,31.97
2023-03-06T03:42:48.604Z,31.97
2023-03-06T03:43:48.619Z,31.98
2023-03-06T03:44:48.682Z,31.96
2023-03-06T03:45:48.627Z,31.91
2023-03-06T03:46:48.685Z,31.88
2023-03-06T03:47:48.719Z,31.90
2023-03-06T03:48:48.643Z,31.90
2023-03-06T03:49:48.707Z,31.95
2023-03-06T03:50:48.637Z,31.88
2023-03-06T03:51:48.646Z,31.89
2023-03-06T03:52:48.661Z,31.91
2023-03-06T03:53:48.648Z,31.90
2023-03-06T03:54:48.659Z,31.90
2023-03-06T03:55:49.322Z,31.91
2023-03-06T03:57:48.669Z,31.93
2023-03-06T04:15:48.689Z,31.79
2023-03-06T04:16:48.706Z,31.76
2023-03-06T04:17:48.713Z,31.77
2023-03-06T04:18:48.706Z,31.72
2023-03-06T04:19:48.711Z,31.74
2023-03-06T04:35:48.784Z,31.68
2023-03-06T04:42:48.737Z,31.74
2023-03-06T04:43:48.747Z,31.67
2023-03-06T04:45:48.797Z,31.66
2023-03-06T04:46:48.746Z,31.72
2023-03-06T04:47:48.748Z,31.69
2023-03-06T04:48:48.760Z,31.70
2023-03-06T04:49:48.764Z,31.69
2023-03-06T04:50:48.763Z,31.69
2023-03-06T04:51:48.792Z,31.64
2023-03-06T04:52:48.770Z,31.67
2023-03-06T04:53:48.761Z,31.71
2023-03-06T04:54:48.766Z,31.69
2023-03-06T04:55:48.757Z,31.67
2023-03-06T04:56:48.759Z,31.63
2023-03-06T04:57:48.771Z,31.68
2023-03-06T04:58:48.773Z,31.67
2023-03-06T04:59:48.775Z,31.68
2023-03-06T05:00:48.818Z,31.68
2023-03-06T05:01:48.910Z,31.69
2023-03-06T05:02:48.799Z,31.69
2023-03-06T05:03:48.800Z,31.66
2023-03-06T05:04:48.812Z,31.63
2023-03-06T05:05:48.807Z,31.66
2023-03-06T05:06:48.802Z,31.63
2023-03-06T05:07:48.809Z,31.61
2023-03-06T05:08:48.812Z,31.65
2023-03-06T05:09:48.818Z,31.64
2023-03-06T05:10:48.828Z,31.65
2023-03-06T05:11:48.832Z,31.64
2023-03-06T05:12:48.829Z,31.65
2023-03-06T05:13:48.836Z,31.64
2023-03-06T05:14:48.838Z,31.63
2023-03-06T05:15:48.849Z,31.63
2023-03-06T05:16:48.881Z,31.64
2023-03-06T05:17:48.858Z,31.65
2023-03-06T05:18:50.582Z,31.65
2023-03-06T05:19:48.857Z,31.65
2023-03-06T05:20:48.855Z,31.67
2023-03-06T05:21:48.869Z,31.65
2023-03-06T05:22:48.867Z,31.60
2023-03-06T05:23:48.942Z,31.60
2023-03-06T05:24:48.877Z,31.58
2023-03-06T05:25:48.883Z,31.62
2023-03-06T05:26:48.895Z,31.62
2023-03-06T05:27:48.889Z,31.65
2023-03-06T05:28:48.892Z,31.64
2023-03-06T05:29:48.898Z,31.60
2023-03-06T05:30:48.907Z,31.61
2023-03-06T05:31:48.958Z,31.57
2023-03-06T05:32:48.987Z,31.61
2023-03-06T05:33:48.934Z,31.61
2023-03-06T05:34:48.934Z,31.60
2023-03-06T05:35:48.991Z,31.59
2023-03-06T05:36:48.953Z,31.57
2023-03-06T05:37:48.967Z,31.61
2023-03-06T05:38:48.974Z,31.61
2023-03-06T05:39:48.976Z,31.60
2023-03-06T05:40:48.992Z,31.57
2023-03-06T05:41:49.010Z,31.56
2023-03-06T05:42:49.013Z,31.59
2023-03-06T05:43:49.002Z,31.61
2023-03-06T05:44:49.028Z,31.60
2023-03-06T05:45:49.102Z,31.58
2023-03-06T05:46:49.015Z,31.58
2023-03-06T05:47:49.024Z,31.57
2023-03-06T05:48:49.033Z,31.54
2023-03-06T05:49:49.037Z,31.56
2023-03-06T05:50:49.036Z,31.55
2023-03-06T05:51:49.045Z,31.55
2023-03-06T05:52:49.062Z,31.50
2023-03-06T05:53:49.073Z,31.53
2023-03-06T05:54:49.080Z,31.53
2023-03-06T05:55:49.079Z,31.53
2023-03-06T05:56:49.089Z,31.54
2023-03-06T05:57:49.097Z,31.55
2023-03-06T05:58:49.101Z,31.55
2023-03-06T05:59:49.102Z,31.49
2023-03-06T06:00:49.107Z,31.51
2023-03-06T06:01:49.104Z,31.50
2023-03-06T06:02:49.119Z,31.53
2023-03-06T06:03:49.179Z,31.49
2023-03-06T06:04:49.136Z,31.48
2023-03-06T06:05:49.371Z,31.49
2023-03-06T06:06:49.141Z,31.48
2023-03-06T06:07:49.152Z,31.49
2023-03-06T06:08:49.157Z,31.50
2023-03-06T06:09:49.174Z,31.49
2023-03-06T06:10:51.015Z,31.46
2023-03-06T06:11:49.144Z,31.49
2023-03-06T06:12:49.116Z,31.50
2023-03-06T06:13:49.085Z,31.47
2023-03-06T06:14:49.042Z,31.48
2023-03-06T06:15:49.063Z,31.43
2023-03-06T06:16:48.981Z,31.44
2023-03-06T06:17:48.948Z,31.43
2023-03-06T06:18:48.913Z,31.44
2023-03-06T06:19:48.881Z,31.46
2023-03-06T06:20:48.874Z,31.43
2023-03-06T06:21:48.886Z,31.44
2023-03-06T06:22:48.791Z,31.42
2023-03-06T06:23:48.762Z,31.46
2023-03-06T06:24:48.872Z,31.48
2023-03-06T06:25:48.694Z,31.16
2023-03-06T06:26:48.656Z,31.29
2023-03-06T06:27:48.622Z,31.31
2023-03-06T06:28:48.589Z,31.15
2023-03-06T06:29:48.564Z,31.11
2023-03-06T06:30:48.555Z,31.10
2023-03-06T06:31:48.495Z,31.06
2023-03-06T06:32:48.464Z,31.03
2023-03-06T06:33:48.434Z,31.10
2023-03-06T06:34:48.411Z,31.17
2023-03-06T06:35:48.428Z,31.19
2023-03-06T06:42:02.374Z,31.28
2023-03-06T06:43:48.103Z,31.22
2023-03-06T06:47:48.043Z,31.25
2023-03-06T06:49:47.907Z,31.25
2023-03-06T06:50:47.874Z,31.23
2023-03-06T06:51:47.849Z,31.23
2023-03-06T06:52:47.824Z,31.22
2023-03-06T06:53:47.782Z,31.25
2023-03-06T06:54:47.754Z,31.22
2023-03-06T06:55:47.884Z,31.22
2023-03-06T07:08:47.890Z,31.24
2023-03-06T09:41:46.122Z,36.56
2023-03-06T09:42:46.101Z,36.75
2023-03-06T09:43:46.083Z,37.06
2023-03-06T09:44:46.040Z,37.04
2023-03-06T09:45:46.025Z,37.12
2023-03-06T09:46:46.013Z,37.16
2023-03-06T09:47:46.451Z,37.48
2023-03-06T09:48:45.869Z,37.49
2023-03-06T09:49:45.829Z,37.85
2023-03-06T09:50:45.806Z,37.88
2023-03-06T09:51:46.757Z,38.12
2023-03-06T09:52:45.717Z,38.23
2023-03-06T09:53:45.675Z,38.60
2023-03-06T09:54:45.618Z,38.68
2023-03-06T09:55:45.574Z,38.68
2023-03-06T09:56:45.528Z,39.37
2023-03-06T09:57:45.484Z,39.06
2023-03-06T09:58:45.429Z,39.00
2023-03-06T09:59:45.391Z,39.15
2023-03-06T10:00:45.387Z,39.26
2023-03-06T10:01:45.311Z,39.40
2023-03-06T10:02:45.341Z,39.38
2023-03-06T10:03:45.297Z,39.53
2023-03-06T10:04:45.207Z,39.99
2023-03-06T10:05:45.131Z,39.99
2023-03-06T10:06:45.117Z,40.04
2023-03-06T10:07:45.107Z,40.24
2023-03-06T10:08:45.095Z,40.78
2023-03-06T10:09:45.063Z,40.40
2023-03-06T10:10:45.067Z,40.91
2023-03-06T10:11:45.080Z,40.81
2023-03-06T10:12:45.144Z,40.77
2023-03-06T10:13:45.103Z,40.88
2023-03-06T10:14:48.457Z,41.08
2023-03-06T10:15:45.084Z,41.10
2023-03-06T10:16:45.949Z,40.45
2023-03-06T10:17:44.984Z,41.34
2023-03-06T10:18:44.935Z,40.94
2023-03-06T10:19:45.463Z,41.09
2023-03-06T10:20:44.864Z,40.91
2023-03-06T10:21:45.785Z,40.88
2023-03-06T10:22:48.064Z,40.86
2023-03-06T10:23:46.374Z,40.87
2023-03-06T10:24:44.678Z,40.73
2023-03-06T10:25:44.604Z,40.76
2023-03-06T10:26:44.666Z,40.90
2023-03-06T10:27:44.509Z,40.85
2023-03-06T10:28:45.377Z,40.89
2023-03-06T10:29:56.355Z,40.87
2023-03-06T10:30:45.418Z,40.85
2023-03-06T10:31:44.325Z,40.93
2023-03-06T10:32:48.696Z,40.89
2023-03-06T10:33:45.888Z,40.94
2023-03-06T10:34:44.296Z,41.00
2023-03-06T10:35:44.171Z,40.97
2023-03-06T10:36:44.082Z,40.98
2023-03-06T10:37:44.884Z,40.91
2023-03-06T10:38:44.959Z,40.96
2023-03-06T10:39:43.947Z,40.95
2023-03-06T10:40:43.905Z,40.97
2023-03-06T10:41:45.331Z,40.95
2023-03-06T10:42:43.792Z,40.96
2023-03-06T10:43:43.748Z,40.91
2023-03-06T10:44:43.697Z,40.94
2023-03-06T10:45:48.988Z,40.93
2023-03-06T10:46:44.647Z,40.91
2023-03-06T10:47:43.553Z,40.84
2023-03-06T10:48:43.510Z,40.74
2023-03-06T10:49:43.464Z,40.67
2023-03-06T10:50:43.418Z,40.60
2023-03-06T10:51:43.368Z,40.60
2023-03-06T10:52:43.325Z,40.54
2023-03-06T11:06:43.468Z,39.98
2023-03-06T11:56:40.800Z,37.64
2023-03-06T11:57:40.864Z,37.69
2023-03-06T11:58:40.836Z,37.58
2023-03-06T11:59:40.838Z,37.60
2023-03-06T12:00:40.857Z,37.62
2023-03-06T12:01:40.905Z,37.53
2023-03-06T12:02:41.489Z,37.46
2023-03-06T12:03:40.889Z,37.44
2023-03-06T12:04:40.891Z,37.45
2023-03-06T12:05:40.974Z,37.50
2023-03-06T12:06:40.903Z,37.44
2023-03-06T12:07:40.917Z,37.39
2023-03-06T12:08:40.912Z,37.36
2023-03-06T12:09:41.498Z,37.42
2023-03-06T12:10:40.939Z,37.35
2023-03-06T12:11:41.056Z,37.33
2023-03-06T12:12:41.036Z,37.23
2023-03-06T12:13:40.968Z,37.08
2023-03-06T12:14:40.989Z,36.97
2023-03-06T12:15:41.009Z,36.97
2023-03-06T12:16:41.093Z,37.00
2023-03-06T12:17:41.022Z,36.97
2023-03-06T12:18:41.027Z,36.93
2023-03-06T12:19:41.036Z,36.90
2023-03-06T12:20:41.046Z,36.91
2023-03-06T12:21:41.071Z,36.90
2023-03-06T12:22:41.070Z,36.82
2023-03-06T12:23:41.049Z,36.86
2023-03-06T12:24:41.148Z,36.84
2023-03-06T12:25:41.079Z,36.85
2023-03-06T12:26:41.094Z,36.86
2023-03-06T12:27:41.099Z,36.87
2023-03-06T12:28:41.114Z,36.78
2023-03-06T12:29:41.130Z,36.73
2023-03-06T12:30:41.144Z,36.72
2023-03-06T12:31:41.172Z,36.69
2023-03-06T12:32:41.169Z,36.67
2023-03-06T12:33:41.177Z,36.71
2023-03-06T12:34:41.512Z,36.70
2023-03-06T12:35:41.234Z,36.65
2023-03-06T12:36:41.238Z,36.69
2023-03-06T12:37:41.221Z,36.72
2023-03-06T12:38:41.241Z,36.70
2023-03-06T12:39:41.422Z,36.59
2023-03-06T12:40:41.401Z,36.59
2023-03-06T12:41:41.334Z,36.70
2023-03-06T12:42:41.271Z,36.68
2023-03-06T12:43:41.277Z,36.67
2023-03-06T12:44:41.299Z,36.67
2023-03-06T12:45:41.355Z,36.65
2023-03-06T12:46:41.473Z,36.62
2023-03-06T12:47:41.301Z,36.63
2023-03-06T12:48:41.316Z,36.67
2023-03-06T12:49:41.309Z,36.68
2023-03-06T12:50:42.017Z,36.66
2023-03-06T12:51:41.400Z,36.59
2023-03-06T12:52:41.360Z,36.60
2023-03-06T12:53:41.405Z,36.66
2023-03-06T12:54:41.362Z,36.68
2023-03-06T12:55:41.376Z,36.65
2023-03-06T12:56:41.439Z,36.65
2023-03-06T12:57:41.370Z,36.65
2023-03-06T12:58:41.355Z,36.62
2023-03-06T12:59:41.362Z,36.56
2023-03-06T13:00:41.352Z,36.64
2023-03-06T13:01:41.362Z,36.65
2023-03-06T13:02:41.349Z,36.66
2023-03-06T13:03:41.294Z,36.65
2023-03-06T13:04:41.269Z,36.66
2023-03-06T13:05:41.333Z,36.66
2023-03-06T13:06:49.772Z,36.68
2023-03-06T13:07:42.145Z,36.66
2023-03-06T13:08:42.666Z,36.68
2023-03-06T13:09:41.041Z,36.62
2023-03-06T13:10:41.002Z,36.63
2023-03-06T13:11:40.928Z,36.64
2023-03-06T13:12:40.882Z,36.69
2023-03-06T13:13:40.826Z,36.71
2023-03-06T13:14:48.710Z,36.70
2023-03-06T13:15:41.720Z,36.72
2023-03-06T13:16:40.704Z,36.72
2023-03-06T13:17:40.609Z,36.69
2023-03-06T13:18:40.563Z,36.65
2023-03-06T13:19:40.512Z,36.64
2023-03-06T13:20:40.461Z,36.71
2023-03-06T13:21:41.062Z,36.73
2023-03-06T13:22:40.364Z,36.71
2023-03-06T13:23:40.893Z,36.71
2023-03-06T13:24:40.268Z,36.72
2023-03-06T13:25:40.280Z,36.72
2023-03-06T13:26:40.153Z,36.72
2023-03-06T13:27:40.110Z,36.72
2023-03-06T13:28:40.059Z,36.73
2023-03-06T13:29:40.007Z,36.74
2023-03-06T13:30:39.985Z,36.76
2023-03-06T13:31:40.001Z,36.73
2023-03-06T13:32:39.893Z,36.74
2023-03-06T13:33:39.806Z,36.77
2023-03-06T13:34:39.772Z,36.78
2023-03-06T13:35:39.756Z,36.75
2023-03-06T13:36:39.957Z,36.80
2023-03-06T13:37:39.622Z,36.78
2023-03-06T13:38:39.584Z,36.78
2023-03-06T13:39:39.535Z,36.79
2023-03-06T13:40:39.483Z,36.78
2023-03-06T13:41:39.446Z,36.80
2023-03-06T13:42:39.375Z,36.79
2023-03-06T13:43:39.329Z,36.80
2023-03-06T13:44:39.334Z,36.82
2023-03-06T13:45:39.298Z,36.85
2023-03-06T13:46:39.208Z,36.82
2023-03-06T13:48:02.865Z,36.84
2023-03-06T13:48:45.466Z,36.84
2023-03-06T13:49:40.070Z,36.89
2023-03-06T13:50:39.022Z,36.86
2023-03-06T13:51:38.969Z,36.90
2023-03-06T13:52:38.946Z,36.87
2023-03-06T13:53:38.903Z,36.89
2023-03-06T13:54:38.844Z,36.89
2023-03-06T13:55:38.805Z,36.91
2023-03-06T13:56:38.819Z,36.91
2023-03-06T13:57:38.709Z,36.88
2023-03-06T13:58:38.668Z,36.90
2023-03-06T13:59:38.632Z,36.91
2023-03-06T14:00:38.586Z,36.89
2023-03-06T14:01:38.663Z,36.88
2023-03-06T14:02:38.519Z,36.80
2023-03-06T14:03:38.437Z,36.76
2023-03-06T14:04:38.386Z,36.80
2023-03-06T14:05:38.535Z,36.85
2023-03-06T14:06:38.290Z,36.85
2023-03-06T14:07:38.244Z,36.85
2023-03-06T14:08:38.198Z,36.84
2023-03-06T14:10:38.102Z,36.85
2023-03-06T14:15:37.940Z,36.88
2023-03-06T14:16:49.439Z,36.69
2023-03-06T14:17:38.784Z,36.66
2023-03-06T14:19:37.691Z,36.51
2023-03-06T14:20:37.644Z,36.51
2023-03-06T14:21:37.598Z,36.57
2023-03-06T14:22:37.557Z,36.60
2023-03-06T14:23:37.514Z,36.62
2023-03-06T17:53:35.943Z,39.71
2023-03-06T17:54:35.990Z,39.74
2023-03-06T17:55:35.935Z,39.79
2023-03-06T17:56:35.908Z,39.69
2023-03-06T17:57:35.954Z,39.72
2023-03-06T17:58:35.885Z,39.69
2023-03-06T17:59:35.864Z,39.68
2023-03-06T18:00:35.858Z,39.68
2023-03-06T18:01:35.901Z,39.66
2023-03-06T18:03:38.210Z,39.60
2023-03-06T18:04:35.771Z,39.65
2023-03-06T18:05:35.724Z,39.64
2023-03-06T18:06:35.689Z,39.64
2023-03-06T18:07:35.635Z,39.64
2023-03-06T18:08:35.622Z,39.70
2023-03-06T18:09:35.568Z,39.70
2023-03-06T18:10:35.532Z,39.65
2023-03-06T18:11:35.510Z,39.70
2023-03-06T18:12:35.466Z,39.65
2023-03-06T18:13:35.421Z,39.61
2023-03-06T18:14:35.386Z,39.65
2023-03-06T18:15:35.334Z,39.63
2023-03-06T18:16:35.679Z,39.59
2023-03-06T18:17:35.308Z,39.66
2023-03-06T18:18:35.211Z,39.65
2023-03-06T18:19:35.183Z,39.57
2023-03-06T18:20:35.157Z,39.62
2023-03-06T18:21:35.105Z,39.57
2023-03-06T18:22:35.067Z,39.50
2023-03-06T18:23:35.028Z,39.46
2023-03-06T18:24:35.050Z,39.49
2023-03-06T18:25:35.016Z,39.54
2023-03-06T18:26:34.937Z,39.57
2023-03-06T18:27:34.887Z,39.48
2023-03-06T18:28:34.849Z,39.51
2023-03-06T18:29:34.817Z,39.52
2023-03-06T18:30:34.766Z,39.47
2023-03-06T18:31:35.017Z,39.39
2023-03-06T18:32:34.712Z,39.54
2023-03-06T18:33:34.664Z,39.54
2023-03-06T18:34:34.610Z,39.48
2023-03-06T18:35:34.608Z,39.44
2023-03-06T18:36:34.552Z,39.53
2023-03-06T18:37:34.511Z,39.44
2023-03-06T18:38:34.473Z,39.46
2023-03-06T18:39:34.438Z,39.46
2023-03-06T18:40:34.404Z,39.47
2023-03-06T18:41:34.458Z,39.48
2023-03-06T18:42:34.332Z,39.44
2023-03-06T18:43:34.296Z,39.50
2023-03-06T18:44:34.261Z,39.43
2023-03-06T18:45:34.255Z,39.36
2023-03-06T18:46:34.205Z,39.37
2023-03-06T18:47:34.161Z,39.38
2023-03-06T18:48:34.139Z,39.44
2023-03-06T18:49:34.104Z,39.42
2023-03-06T18:50:34.064Z,39.39
2023-03-06T18:51:34.034Z,39.40
2023-03-06T18:52:34.002Z,39.40
2023-03-06T18:53:33.983Z,39.40
2023-03-06T18:54:33.925Z,39.43
2023-03-06T18:55:33.889Z,39.40
2023-03-06T18:56:33.848Z,39.38
2023-03-06T18:57:33.836Z,39.35
2023-03-06T18:58:33.804Z,39.33
2023-03-06T18:59:33.752Z,39.37
2023-03-06T19:00:33.710Z,39.34
2023-03-06T19:01:33.741Z,39.31
2023-03-06T19:02:33.648Z,39.32
2023-03-06T19:03:33.636Z,39.33
2023-03-06T19:04:33.595Z,39.27
2023-03-06T19:05:33.541Z,39.29
2023-03-06T19:06:33.514Z,39.31
2023-03-06T19:07:33.465Z,39.29
2023-03-06T19:08:33.439Z,39.25
2023-03-06T19:09:33.400Z,39.24
2023-03-06T19:10:33.378Z,39.19
2023-03-06T19:11:33.337Z,39.23
2023-03-06T19:12:33.292Z,39.22
2023-03-06T19:31:33.671Z,39.11
2023-03-06T19:46:33.401Z,38.96
2023-03-06T19:49:33.298Z,38.94
2023-03-06T19:50:33.309Z,38.94
2023-03-06T19:51:33.400Z,38.93
2023-03-06T19:52:33.323Z,38.95
2023-03-06T19:53:33.431Z,38.97
2023-03-06T19:54:33.402Z,38.95
2023-03-06T19:55:33.344Z,38.88
2023-03-06T19:56:33.380Z,38.86
2023-03-06T19:57:33.369Z,38.89
2023-03-06T19:58:33.393Z,38.87
2023-03-06T19:59:33.394Z,38.83
2023-03-06T20:00:33.477Z,38.85
2023-03-06T20:01:33.433Z,38.85
2023-03-06T20:02:33.423Z,38.88
2023-03-06T20:03:34.214Z,38.81
2023-03-06T20:04:33.505Z,38.82
2023-03-06T20:05:33.456Z,38.84
2023-03-06T20:06:33.545Z,38.84
2023-03-06T20:10:33.576Z,38.80
2023-03-06T20:11:33.521Z,38.82
2023-03-06T20:12:33.535Z,38.76
2023-03-06T20:13:33.556Z,38.76
2023-03-06T20:14:33.590Z,38.72
2023-03-06T20:15:33.607Z,38.78
2023-03-06T20:16:33.668Z,38.70
2023-03-06T20:17:33.612Z,38.71
2023-03-06T20:18:33.630Z,38.74
2023-03-06T20:19:33.643Z,38.76
2023-03-06T20:20:33.670Z,38.74
2023-03-06T20:21:33.689Z,38.71
2023-03-06T20:22:33.696Z,38.72
2023-03-06T20:23:33.736Z,38.68
2023-03-06T20:24:33.734Z,38.68
2023-03-06T20:25:33.746Z,38.69
2023-03-06T20:26:33.759Z,38.65
2023-03-06T20:27:33.769Z,38.61
2023-03-06T20:28:33.789Z,38.61
2023-03-06T20:29:33.813Z,38.63
2023-03-06T20:30:38.114Z,38.63
2023-03-06T20:31:33.810Z,38.61
2023-03-06T20:32:33.760Z,38.66
2023-03-06T20:36:33.598Z,38.60
2023-03-06T20:38:33.517Z,38.61
2023-03-06T20:39:33.483Z,38.60
2023-03-06T20:40:33.602Z,38.57
2023-03-06T20:41:33.410Z,38.57
2023-03-06T20:42:33.378Z,38.59
2023-03-06T20:43:33.332Z,38.57
2023-03-06T20:44:33.297Z,38.57
2023-03-06T20:45:33.316Z,38.55
2023-03-06T20:50:33.287Z,38.49
2023-03-06T20:51:33.307Z,38.51
2023-03-06T20:52:33.330Z,38.49
2023-03-06T20:53:33.358Z,38.53
2023-03-06T20:54:33.377Z,38.49
2023-03-06T20:55:33.417Z,38.47
2023-03-06T20:56:33.427Z,38.45
2023-03-06T20:57:33.461Z,38.43
2023-03-06T20:58:33.482Z,38.48
2023-03-06T20:59:33.503Z,38.46
2023-03-06T21:00:33.523Z,38.45
2023-03-06T21:01:33.632Z,38.45
2023-03-06T21:02:33.584Z,38.45
2023-03-06T21:03:33.595Z,38.45
2023-03-06T21:04:33.646Z,38.40
2023-03-06T21:05:33.649Z,38.31
2023-03-06T21:06:33.667Z,38.43
2023-03-06T21:07:33.697Z,38.39
2023-03-06T21:08:33.719Z,38.39
2023-03-06T21:09:33.789Z,38.44
2023-03-06T21:10:33.756Z,38.41
2023-03-06T21:11:33.779Z,38.38
2023-03-06T21:12:33.812Z,38.41
2023-03-06T21:13:33.851Z,38.39
2023-03-06T21:14:33.884Z,38.40
2023-03-06T21:15:33.893Z,38.38
2023-03-06T21:16:34.005Z,38.38
2023-03-06T21:17:33.953Z,38.38
2023-03-06T21:18:33.984Z,38.33
2023-03-06T21:19:34.019Z,38.30
2023-03-06T21:20:34.692Z,38.31
2023-03-06T21:21:34.068Z,38.25
2023-03-06T21:22:34.091Z,38.32
2023-03-06T21:23:34.124Z,38.28
2023-03-06T21:24:34.136Z,38.26
2023-03-06T21:25:34.175Z,38.27
2023-03-06T21:26:34.217Z,38.29
2023-03-06T21:27:34.228Z,38.29
2023-03-06T21:28:34.266Z,38.28
2023-03-06T21:29:34.290Z,38.22
2023-03-06T21:30:34.313Z,38.24
2023-03-06T21:31:34.542Z,38.24
2023-03-06T21:32:34.452Z,38.21
2023-03-06T21:33:34.389Z,38.27
2023-03-06T21:34:34.420Z,38.26
2023-03-06T21:35:34.463Z,38.22
2023-03-06T21:36:35.194Z,38.20
2023-03-06T21:37:34.503Z,38.21
2023-03-06T21:48:34.754Z,38.13
2023-03-06T22:03:35.141Z,38.06
2023-03-06T22:04:35.234Z,37.99
2023-03-06T22:05:35.204Z,38.02
2023-03-06T22:06:35.299Z,38.00
2023-03-06T22:07:35.249Z,38.00
2023-03-06T22:08:35.289Z,38.03
2023-03-06T22:09:35.314Z,37.98
2023-03-06T22:10:35.357Z,37.95
2023-03-06T22:11:35.362Z,37.93
2023-03-06T22:12:35.440Z,37.94
2023-03-06T22:13:35.405Z,37.92
2023-03-06T22:14:35.447Z,37.96
2023-03-06T22:15:35.478Z,37.92
2023-03-06T22:16:35.564Z,37.89
2023-03-06T22:17:35.533Z,37.95
2023-03-06T22:18:35.572Z,37.96
2023-03-06T22:19:35.652Z,37.96
2023-03-06T22:20:35.702Z,37.89
2023-03-06T22:21:35.650Z,37.93
2023-03-06T22:22:35.675Z,37.88
2023-03-06T22:23:36.234Z,37.91
2023-03-06T22:24:35.734Z,37.92
2023-03-06T22:25:35.766Z,37.89
2023-03-06T22:26:35.795Z,37.89
2023-03-06T22:27:35.849Z,37.87
2023-03-06T22:28:35.856Z,37.85
2023-03-06T22:29:35.887Z,37.86
2023-03-06T22:30:35.923Z,37.82
2023-03-06T22:31:35.967Z,37.80
2023-03-06T22:32:36.005Z,37.79
2023-03-06T22:33:36.016Z,37.79
2023-03-06T22:34:36.034Z,37.77
2023-03-06T22:35:36.091Z,37.73
2023-03-06T22:36:36.110Z,37.77
2023-03-06T22:37:36.133Z,37.80
2023-03-06T22:38:36.159Z,37.76
2023-03-06T22:39:36.187Z,37.79